Aroma, Indiana
Current Conditions -  °F | °C
As of 6:15 AM on Thursday 23 Oct 2014 (Local Time) from KTYQ Reporting Station
Moderate Fog Moderate Fog  
Wind Chill: 33°   Ceiling: 500
Heat Index: 33°   Visibility: 0.5mi
Dew Point: 31°   Wind: 0mph
Humidity: 93%   Direction: NA
Pressure: 30.26"   Gusts: NA
Location:  40.1832°N, 85.9359°W
Report Text: KTYQ 231015Z AUTO 00000KT 1/2SM FG VV005 01/00 A3026 RMK AO2 T00051005
Loading
Personal Weather Stations






























Interactive Weather Map New forecast layout! Learn more

10-Day Weather Forecast

Advertisements
Track Severe Weather on mobile